Aviation Digital Data Service (ADDS)

Output produced by METARs form (2300 UTC 23 May 2022)
found at http://www.aviationweather.gov/metar/data/
 
EGAA 232250Z AUTO 31005KT 280V340 9999 BKN043 10/07 Q1002
TAF EGAA 231656Z 2318/2418 28005KT 9999 FEW023 SCT034 
     TEMPO 2318/2321 7000 SHRA 
     PROB30 
     TEMPO 2318/2320 3000 +SHRA +TSRA 
     PROB30 
     TEMPO 2404/2408 7000 SHRA BKN012 
     TEMPO 2408/2418 7000 SHRA 
     PROB30 
     TEMPO 2409/2418 4000 +SHRA
       
EGPL 232250Z AUTO 27005KT 9999 FEW013/// SCT027/// 10/08 Q1000
TAF EGPL 231400Z 2315/2317 29007KT 9999 FEW020 
     PROB40 
     TEMPO 2315/2317 4000 SHRA BKN010
       
EGUB 232220Z 26010KT 9999 -RA FEW010 BKN040 10/09 Q1001 TEMPO 6000 SHRA SCT010 RMK BLU TEMPO GRN
TAF EGUB 232252Z 2400/2403 25006KT 9999 FEW020 BKN040 
     PROB40 
     TEMPO 2400/2403 6000 RA SCT012 
     PROB30 
     TEMPO 2400/2403 3000 +SHRA SCT010CB
       
EGKB 232120Z 23007KT CAVOK 10/07 Q1001
TAF EGKB 231703Z 2318/2321 27004KT 9999 SCT045 
     PROB40 
     TEMPO 2318/2321 6000 SHRA
       
EGBB 232250Z 27006KT 9999 FEW017 10/10 Q1001
TAF EGBB 231657Z 2318/2418 29008KT 9999 SCT035 
     TEMPO 2318/2403 7000 SHRA 
     PROB30 
     TEMPO 2320/2324 4000 +SHRA BKN014 
     TEMPO 2408/2418 7000 SHRA 
     PROB40 
     TEMPO 2409/2418 4000 +SHRA BKN012
       
EGNH 231850Z 30013KT 9999 FEW014 13/09 Q1000
TAF EGNH 231645Z 2318/2320 28010KT 9999 SCT020
       
EGDM 232150Z AUTO 29008KT 3200 RA FEW016/// SCT030/// BKN044/// 09/08 Q1002
EGHH 232120Z 28003KT 9999 FEW011 SCT023 BKN038 10/09 Q1003
TAF EGHH 231836Z 2318/2321 28008KT 9999 FEW020 
     TEMPO 2318/2321 7000 SHRA
       
EGGD 232250Z AUTO 25005KT 9999 BKN046 10/08 Q1002
TAF AMD EGGD 231830Z 2318/2418 27009KT 9999 BKN030 
     TEMPO 2318/2403 7000 SHRA 
     PROB40 
     TEMPO 2318/2403 4000 +SHRA 
     PROB30 
     TEMPO 2318/2409 BKN008 
     PROB30 
     TEMPO 2409/2413 27015G25KT 3000 +SHRA BKN014 BKN022CB
       
EGVN 232250Z 24002KT 9999 SCT020 BKN030 10/08 Q1001 BECMG FEW020 RMK BLACKWHT BECMG BLU
TAF EGVN 232243Z 2400/2424 25005KT 9999 SCT040 
     TEMPO 2402/2406 5000 SHRA SCT018 
     PROB30 
     TEMPO 2402/2405 3000 +SHRA SCT012CB 
     PROB30 
     TEMPO 2409/2416 3000 +SHRA SCT022CB
       
EGCK 232250Z AUTO 31009KT 9999 FEW012/// 11/09 Q1002
TAF EGCK 231956Z 2321/2406 29011KT 9999 FEW020 
     PROB30 
     TEMPO 2321/2323 7000 SHRA
       
TAF EGSC 231354Z 2315/2317 22003KT 9999 SCT040 
     PROB30 
     TEMPO 2315/2317 7000 RA
       
TAF EGEC 231400Z 2315/2317 29012KT 9999 FEW011 SCT020 
     PROB30 
     TEMPO 2315/2317 6000 SHRA BKN014
       
EGFF 232250Z AUTO 29007KT 9999 SCT047 10/09 Q1003
TAF AMD EGFF 231830Z 2318/2418 28009KT 9999 BKN040 
     TEMPO 2318/2402 7000 SHRA 
     PROB40 
     TEMPO 2318/2322 4000 +SHRA 
     PROB30 
     TEMPO 2318/2406 BKN014 
     PROB30 
     TEMPO 2408/2413 4000 SHRA
       
EGLC 232250Z AUTO 26011KT 4900 RA FEW018/// BKN027/// BKN033/// //////TCU 12/09 Q1001
TAF EGLC 231703Z 2318/2321 29003KT 9999 SCT040 
     PROB40 
     TEMPO 2318/2321 6000 SHRA
       
EGAC 232250Z AUTO 28004KT 230V330 9999 NCD 11/08 Q1002
TAF EGAC 231656Z 2318/2321 30006KT 9999 FEW021 SCT037 
     TEMPO 2318/2321 7000 SHRA 
     PROB30 
     TEMPO 2318/2320 3000 +SHRA +TSRA
       
EGXC 232250Z 29007KT 9999 -RA SCT030 BKN050 12/10 Q0999 RMK BLU
TAF EGXC 232225Z 2400/2418 28007KT 9999 SCT030 
     TEMPO 2400/2405 6000 RA SCT020 
     PROB30 
     TEMPO 2400/2403 4000 SCT010 
     PROB30 
     TEMPO 2409/2418 5000 SHRA SCT035CB
       
TAF EGWC 231345Z 2315/2318 26009KT 9999 SCT025 
     TEMPO 2315/2318 6000 SHRA SCT018 
     PROB30 
     TEMPO 2315/2318 3000 +SHRA BKN012TCU
       
EGTC 231720Z 27008KT 9999 FEW047 15/09 Q1000
TAF EGTC 231354Z 2315/2318 28008KT 9999 SCT045 
     PROB30 
     TEMPO 2315/2318 8000 RA
       
EGYD 232220Z AUTO 27007KT 9999 SCT027/// BKN053/// 11/10 Q0999
TAF EGYD 231335Z 2315/2318 28008KT 9999 SCT040
       
EGDR 232150Z AUTO 26008KT 9999 FEW020/// 11/09 Q1005
TAF EGDR 231409Z 2315/2324 30010KT 9999 FEW020 SCT035 
     TEMPO 2315/2324 5000 SHRA SCT012 BKN016TCU 
     PROB30 
     TEMPO 2317/2324 2500 +SHRA SCT008 BKN014CB
       
EGPN 231950Z VRB02KT 9999 VCSH FEW015 SCT032 13/08 Q0998
TAF AMD EGPN 231743Z 2318/2321 34007KT 9999 FEW015 
     PROB30 
     TEMPO 2318/2320 7000 SHRA
       
EGPD 232250Z AUTO 33011KT 9999 SCT007 BKN011 09/08 Q0998 TEMPO BKN007
TAF AMD EGPD 231730Z 2318/2418 34010KT 9999 SCT025 
     TEMPO 2318/2408 7000 -RA BKN010 
     PROB30 
     TEMPO 2319/2406 4000 RADZ BR BKN005 
     TEMPO 2408/2418 8000 -SHRA 
     PROB30 
     TEMPO 2412/2418 4000 SHRA BKN012 
     BECMG 2413/2416 18008KT
       
EGNX 232250Z 27010KT CAVOK 10/07 Q1000
TAF EGNX 231657Z 2318/2418 28009KT 9999 SCT025 
     TEMPO 2318/2324 7000 SHRA 
     PROB30 
     TEMPO 2321/2324 4000 +SHRA BKN014 
     TEMPO 2406/2418 7000 SHRA 
     PROB40 
     TEMPO 2409/2416 4000 +SHRA BKN014
       
EGPH 232250Z 26006KT 9999 BKN039 11/07 Q0999
TAF EGPH 231656Z 2318/2418 27007KT 9999 SCT030 
     PROB30 
     TEMPO 2318/2320 8000 -SHRA 
     TEMPO 2408/2418 8000 -SHRA 
     PROB30 
     TEMPO 2409/2418 4000 SHRA BKN012
       
EGTE 232250Z 22003KT 9999 FEW020 10/09 Q1004
TAF EGTE 231955Z 2321/2403 27007KT 9999 FEW020 
     PROB40 
     TEMPO 2321/2403 7000 SHRA BKN012
       
TAF AMD EGVA 231645Z 2316/2421 27010G15KT 9999 BKN030 OVC060 QNH2954INS 
     TEMPO 2316/2318 9000 -SHRA 
     BECMG 2318/2319 27009KT 8000 -SHRA BKN030 OVC060 QNH2953INS 
     BECMG 2403/2404 27009KT 6000 BR OVC008 QNH2957INS 
     TEMPO 2404/2406 3200 BR 
     BECMG 2406/2408 27010KT 8000 -RA OVC020 QNH2962INS 
     BECMG 2409/2410 27012KT 8000 -RA VCTS OVC050CB QNH2967INS 
     TEMPO 2410/2413 27010G20KT 6000 TSRA OVC040CB 
     BECMG 2415/2416 27010KT 8000 -RA BKN050 QNH2973INS TX16/2316Z TN09/2403Z
LAST NO AMDS AFT 2316 NEXT 2405
       
EGLF 232250Z AUTO 30006KT 270V330 9999 -RA SCT011/// SCT049/// 11/08 Q1002
TAF EGLF 231703Z 2318/2321 29005KT 9999 SCT025 
     PROB40 
     TEMPO 2318/2321 6000 SHRA
       
EGKK 232250Z 24006KT CAVOK 11/08 Q1002
TAF EGKK 231658Z 2318/2424 26007KT 9999 SCT035 
     PROB30 
     TEMPO 2318/2324 6000 SHRA 
     TEMPO 2400/2406 6000 SHRA BKN010 
     PROB40 
     TEMPO 2406/2410 4000 +SHRA BKN014CB 
     TEMPO 2410/2418 3000 +SHRA BKN014CB 
     PROB30 
     TEMPO 2410/2416 27015G25KT +TSRAGS
       
EGPF 232250Z AUTO 26003KT 9999 NCD 08/06 Q1000
TAF EGPF 231656Z 2318/2418 29008KT 9999 FEW020 
     PROB30 
     TEMPO 2318/2320 6000 SHRA 
     TEMPO 2408/2418 8000 -SHRA 
     PROB30 
     TEMPO 2409/2416 4000 SHRA BKN014
       
EGBJ 231820Z 24003KT 9999 VCSH FEW012 SCT030 12/11 Q1001
TAF EGBJ 231657Z 2318/2321 30008KT 9999 SCT035 
     TEMPO 2318/2321 7000 SHRA
       
EGNR 231950Z 31005KT 270V340 9999 FEW026 12/08 Q1001
TAF EGNR 231356Z 2315/2320 30007KT 9999 SCT025 
     PROB40 
     TEMPO 2315/2318 7000 SHRA 
     PROB30 
     TEMPO 2315/2318 4000 +SHRA
       
EGLL 232250Z AUTO 27010KT 9999 -RA FEW022/// //////TCU 11/09 Q1002 TEMPO SHRA
TAF COR EGLL 231720Z 2318/2424 27009KT 9999 SCT025 
     TEMPO 2318/2408 7000 SHRA 
     PROB30 
     TEMPO 2318/2407 4000 +SHRA BKN009 
     TEMPO 2409/2418 7000 SHRA BKN014CB 
     PROB30 
     TEMPO 2410/2417 27015G25KT 3000 +TSRA
       
EGNJ 232250Z AUTO 29008KT 9999 -RA FEW026/// BKN032/// 11/10 Q0999
TAF AMD EGNJ 232055Z 2321/2406 28006KT 9999 SCT035 
     TEMPO 2321/2323 2500 +SHRA 
     TEMPO 2323/2406 6000 RA SHRA
       
EGPE 232250Z AUTO 00000KT 9999 OVC027/// 10/08 Q1000
TAF EGPE 231955Z 2321/2406 VRB03KT 9999 FEW014 SCT035 
     PROB30 
     TEMPO 2321/2405 BKN014
       
EGPI 232220Z AUTO 29006KT 9999 NCD 10/08 Q1001
TAF EGPI 231400Z 2315/2318 29012KT 9999 SCT035 
     PROB30 
     TEMPO 2315/2318 6000 SHRA BKN012
       
EGTK 232120Z 27004KT 9999 -RA FEW011 BKN024 11/09 Q1001
TAF EGTK 231659Z 2318/2322 28007KT 9999 SCT035 
     TEMPO 2318/2322 6000 RA BKN014
       
EGQK 232150Z AUTO 18001KT 9999 BKN033/// 09/08 Q0999 RERA
EGPA 232250Z AUTO 33005KT 9999 NCD 09/08 Q0999
TAF EGPA 231955Z 2321/2406 36006KT 9999 FEW012 SCT030 
     PROB30 
     TEMPO 2321/2403 BKN012
       
EGUL 232256Z AUTO 25006KT 9999 SCT042 BKN055 12/11 A2951 RMK AO2 RAE2156DZB2156E2159 SLP996 P0000 T01150113 $
TAF EGUL 232100Z 2321/2503 29012KT 6000 -SHRA SCT025 BKN040 610509 QNH2947INS 
     BECMG 2323/2324 27010G15KT 5000 SHRA BKN006 OVC015 610509 QNH2947INS 
     BECMG 2407/2408 27012G20KT 9999 NSW SCT025 BKN045 QNH2955INS 
     TEMPO 2412/2415 27015G25KT 8000 -TSRA SCT020 BKN030CB 
     BECMG 2415/2416 27009KT 9999 BKN035 QNH2968INS TX16/2414Z TN10/2405Z LAST
NO AMDS AFT 2321 NEXT 2405
       
EGNM 232250Z 27013KT 9999 SCT037 10/07 Q0999
TAF EGNM 231644Z 2318/2418 27010KT 9999 SCT020 
     PROB40 
     TEMPO 2318/2320 7000 SHRA 
     TEMPO 2409/2418 7000 SHRA
       
EGXE 232150Z AUTO 27007KT 9999 -RA BKN050/// BKN090/// 11/09 Q0998
TAF EGXE 231342Z 2315/2318 27010KT 9999 SCT040 
     PROB30 
     TEMPO 2315/2318 7000 SHRA
       
EGQL 232250Z 08002KT 9999 RERA BKN029 BKN041 11/08 Q0998 RMK BLU
TAF EGQL 232223Z 2400/2409 02004KT 9999 FEW020 
     TEMPO 2407/2409 7000 SHRA SCT020 
     PROB30 
     TEMPO 2408/2409 4000 +SHRA BKN018CB
       
EGGP 232250Z AUTO 28013KT 9999 SCT015/// BKN045/// 11/09 Q1000
TAF EGGP 231643Z 2318/2418 29010KT 9999 SCT025 
     PROB40 2322/2408 BKN014 
     TEMPO 2406/2418 7000 SHRA 
     PROB40 
     TEMPO 2409/2416 3000 +SHRAGS
       
EGAE 232050Z 27005KT 260V320 9999 FEW022 11/09 Q1002
TAF EGAE 232025Z 2321/2323 28008KT 9999 SCT022 
     PROB40 
     TEMPO 2321/2323 7000 SHRA
       
EGQS 232250Z 02002KT 9999 FEW012 SCT025 BKN045 09/07 Q0999 RMK BLU
TAF EGQS 232231Z 2400/2418 36005KT 9999 FEW010 BKN025 
     TEMPO 2400/2409 6000 -SHRA SCT016 
     PROB30 
     TEMPO 2400/2409 4000 SHRA SCT010 BKN016 
     PROB40 
     TEMPO 2409/2412 7000 SHRA SCT020 
     PROB30 
     TEMPO 2412/2418 7000 SHRA SCT030CB
       
EGGW 232250Z AUTO 28010KT 9999 -RA SCT011/// BKN032/// BKN039/// //////TCU 11/08 Q1001
TAF EGGW 231657Z 2318/2418 28008KT 9999 SCT030 
     PROB30 
     TEMPO 2318/2322 7000 SHRA 
     TEMPO 2322/2408 6000 SHRA BKN007 
     PROB30 
     TEMPO 2322/2406 4000 +SHRA 
     TEMPO 2409/2418 7000 SHRA BKN014CB 
     PROB30 
     TEMPO 2409/2417 27015G25KT 3000 +TSRA
       
EGMD 232250Z AUTO 26011KT 9999 FEW014/// 12/10 Q1002
TAF EGMD 232001Z 2321/2406 25010KT 9999 SCT045 
     PROB30 
     TEMPO 2321/2406 8000 SHRA
       
EGCC 232250Z AUTO 27003KT 9999 NCD 11/08 Q1001 NOSIG
TAF EGCC 231643Z 2318/2424 25006KT 9999 SCT025 
     PROB40 2322/2408 BKN010 
     TEMPO 2406/2418 7000 SHRA 
     PROB40 
     TEMPO 2409/2416 3000 +SHRAGS
       
EGYM 232150Z AUTO 27005KT 9999 FEW039/// BKN050/// 12/10 Q0999 RERA
EGUN 232256Z 25004KT 9999 FEW042 BKN050 BKN070 OVC100 11/11 A2952 RMK AO2A SLP998 T01130108 $
TAF EGUN 232008Z 2320/2502 35009KT 8000 -SHRA BR SCT015 OVC040 610608 QNH2949INS
WND 28012KT AFT 2321 
     BECMG 2323/2324 27010G15KT 5000 -SHRA BR SCT007 OVC012 610509 QNH2948INS 
     TEMPO 2400/2402 3200 SHRA BR BKN007 OVC012 
     BECMG 2402/2403 27012G18KT 6000 -SHRA BR SCT007 OVC015 610509 QNH2947INS 
     BECMG 2405/2406 27010G20KT 9999 NSW SCT015 BKN025 OVC080 620506 QNH2953INS 
     BECMG 2410/2411 27010G20KT 9000 -SHRA SCT020 OVC030 600603 QNH2962INS 
     TEMPO 2413/2416 27015G25KT 5000 -SHRA BR VCTS BKN015CB OVC030 
     BECMG 2419/2420 25009KT 9999 NSW SCT020 BKN030 600602 QNH2976INS 
     BECMG 2501/2502 24006KT 9999 BKN020 QNH2980INS TX18/2414Z TN09/2404Z
       
EGNT 232250Z 26007KT 9999 FEW025 10/07 Q0998
TAF EGNT 231644Z 2318/2418 26005KT 9999 FEW025 
     PROB40 2400/2409 BKN008 
     TEMPO 2409/2418 7000 SHRA
       
EGWU 232150Z AUTO 25006KT 3800 RA FEW030/// BKN034/// 11/10 Q1001
TAF EGWU 231932Z 2321/2415 25006KT 9999 SCT035 
     PROB40 
     TEMPO 2321/2408 5000 SHRA BKN010 
     TEMPO 2408/2415 6000 SHRA 
     PROB30 
     TEMPO 2408/2415 3000 +SHRA BKN015CB
       
EGSH 232250Z AUTO 25006KT 9999 -RA FEW016/// BKN030/// BKN035/// 12/11 Q0999
TAF AMD EGSH 232044Z 2321/2406 27005KT 9999 SCT040 
     TEMPO 2321/2406 6000 RA SHRA BKN012 
     PROB40 
     TEMPO 2321/2322 3000 +SHRA TSRA BKN006 
     PROB40 
     TEMPO 2322/2406 3000 +RA +SHRA BKN006
       
TAF EGEO 231400Z 2315/2317 28012KT 9999 FEW012 SCT020 
     PROB40 
     TEMPO 2315/2317 7000 SHRA BKN014
       
EGVO 232250Z 25011KT 9999 -SHRA SCT014 BKN030 10/08 Q1002 TEMPO 7000 SHRA RMK GRN TEMPO GRN
TAF EGVO 232234Z 2400/2412 26010KT 9999 BKN045 
     TEMPO 2400/2412 7000 SHRA BKN020 
     PROB30 
     TEMPO 2400/2404 4000 +SHRA BKN014TCU 
     PROB30 
     TEMPO 2404/2412 3500 +SHRA BKN012CB
       
EGPK 232250Z 30009KT 9999 SCT048 10/07 Q1000
TAF EGPK 231656Z 2318/2418 30009KT 9999 SCT040 
     PROB30 
     TEMPO 2400/2406 BKN012 
     TEMPO 2408/2417 8000 -SHRA 
     PROB30 
     TEMPO 2409/2415 4000 SHRA BKN014
       
EGXP 232150Z AUTO 30005KT 9999 // OVC050/// 11/10 Q0998
EGOS 232250Z 25006KT CAVOK 09/08 Q1001 NOSIG RMK BLU BLU
TAF EGOS 232241Z 2400/2403 27005KT 9999 FEW015 SCT030 
     PROB30 
     TEMPO 2400/2403 6000 SHRA SCT020
       
TAF EGSY 231358Z 2315/2316 27009KT 9999 SCT020 
     TEMPO 2315/2316 7000 SHRA 
     PROB40 
     TEMPO 2315/2316 4000 +SHRA
       
EGKA 231850Z 26009KT CAVOK 14/08 Q1001
TAF EGKA 231703Z 2318/2320 26012KT 9999 SCT045 
     PROB40 
     TEMPO 2318/2320 6000 SHRA
       
EGHI 231950Z 24003KT 200V280 9999 FEW018 12/10 Q1002
TAF EGHI 231657Z 2318/2322 28009KT 9999 SCT045 
     TEMPO 2318/2322 7000 SHRA
       
EGMC 232250Z 24008KT 9999 FEW029 12/09 Q1000
TAF EGMC 232001Z 2321/2406 26005KT 9999 SCT045 
     PROB30 
     TEMPO 2322/2324 7000 RA 
     TEMPO 2400/2406 7000 SHRA BKN012
       
EGSS 232250Z AUTO 26005KT 9999 BKN047 12/08 Q1001
TAF EGSS 231657Z 2318/2424 28008KT 9999 SCT030 
     PROB30 
     TEMPO 2318/2323 7000 SHRA 
     TEMPO 2323/2409 6000 SHRA BKN009 
     PROB30 
     TEMPO 2403/2406 4000 +SHRA 
     TEMPO 2409/2418 7000 SHRA BKN014CB 
     PROB30 
     TEMPO 2409/2417 27015G25KT 3000 +TSRA
       
EGPO 232250Z AUTO 00000KT 9999 BKN042/// 09/08 Q1000
TAF EGPO 231955Z 2321/2406 18005KT 9999 FEW015 SCT022 
     PROB40 
     TEMPO 2321/2406 4000 SHRA BKN014 
     BECMG 2400/2403 32010KT
       
EGPB 232250Z AUTO 01007KT 9999 OVC005/// 09/08 Q0999
TAF AMD EGPB 232228Z 2322/2406 36005KT 9999 FEW008 SCT015 
     TEMPO 2322/2405 BKN012 
     PROB30 
     TEMPO 2322/2405 8000 -SHRA BKN005
       
EGNV 232050Z 21005KT 9000 -SHRA FEW036 10/09 Q0999
TAF AMD EGNV 231855Z 2318/2321 22005KT 9999 FEW020 
     TEMPO 2318/2321 7000 SHRA
       
EGPU 232220Z AUTO 29007KT 9999 NCD 10/08 Q1000
TAF EGPU 231400Z 2315/2318 31009KT 9999 FEW030 
     PROB40 
     TEMPO 2315/2318 7000 SHRA BKN010
       
EGXZ 232250Z AUTO 27003KT 9999 BKN060/// BKN100/// 11/09 Q0998 RERA
EGOV 232220Z AUTO 30007KT 9999 FEW073/// OVC088/// 11/09 Q1001
TAF EGOV 231325Z 2315/2319 27010KT 9999 FEW026CB 
     PROB30 
     TEMPO 2316/2319 7000 SHRA SCT024CB
       
EGXW 232150Z AUTO 30006KT 9999 BKN050/// 12/09 Q0999 RERA
TAF EGXW 231937Z 2321/2415 27008KT 9999 -RA BKN040 
     TEMPO 2321/2405 6000 RA SCT020 
     PROB30 
     TEMPO 2321/2403 SCT010 
     PROB30 
     TEMPO 2410/2415 6000 SHRA SCT030CB
       
EGNO 231750Z 29010KT 260V320 9999 FEW017 13/08 Q1000
TAF EGNO 231356Z 2315/2319 28010KT 9999 SCT020
       
EGUW 232250Z 28006KT 9999 FEW015 SCT045 BKN120 11/10 Q0999 TEMPO 6000 SHRA BKN022 RMK BLU TEMPO WHT
TAF EGUW 232017Z 2321/2402 28008KT 9999 SCT040 
     PROB40 
     TEMPO 2321/2323 6000 RA SHRA SCT022 
     TEMPO 2323/2402 6000 RA SHRA SCT012
       
EGPC 232250Z AUTO 30005KT 9999 FEW030/// 08/07 Q0999
TAF EGPC 231955Z 2321/2406 35005KT 9999 FEW010 BKN020 
     PROB30 
     TEMPO 2321/2403 BKN010
       
EGXT 232150Z AUTO 25009KT 9000 -RA BKN048/// BKN090/// 11/10 Q0999
TAF EGXT 231353Z 2315/2318 28007KT 9999 SCT025
       
TAF AMD EGOW 231411Z 2314/2318 29010KT 9999 BKN025 
     PROB40 
     TEMPO 2314/2317 SCT014
       
EGDY 232221Z 26003KT 9999 FEW025 SCT060 BKN140 10/09 Q1002 TEMPO 7000 SHRA SCT020 RMK BLU TEMPO WHT
TAF AMD EGDY 231910Z 2318/2403 25010KT 9999 FEW020 
     TEMPO 2318/2403 7000 -RA FEW012 SCT020 
     TEMPO 2318/2324 4000 SHRA SCT012 BKN018CB